Mission Trails (636, 639) Station Data

Red Flag Warning: No
Fire Weather Zone: 250
SDGE Region: Beach Cities
Lat/Lon: 32.842/-117.056

Observations

Time Wind Speed/Gust Temp(F) RH Fuel Moist Fuel Temp(F) Dewpt(F) Tmax(F) Tmin(F) Accum Precip 10-min Precip SL Press(mb)
4/26 2:40am 45 1 G 2 55° 95% - - 54° 57.4° 54.6° - - 1012.0
4/26 2:30am 34 1 G 2 55° 95% - - 54° 57.4° 54.7° - - 1013.0
4/26 2:20am 266 1 G 2 56° 96% - - 54° 57.4° 55.2° - - 1013.0
4/26 2:10am 246 2 G 3 56° 95% - - 54° 57.4° 55.2° - - 1013.0
4/26 2:00am 238 2 G 3 56° 95% - - 54° 57.4° 55.2° - - 1013.0
4/26 1:50am 244 2 G 3 56° 95% - - 54° 57.4° 55.2° - - 1013.0
4/26 1:40am 241 3 G 4 56° 95% - - 54° 57.4° 55.2° - - 1013.0
4/26 1:30am 232 3 G 3 56° 95% - - 54° 57.4° 55.2° - - 1013.0
4/26 1:20am 235 2 G 3 56° 95% - - 54° 57.4° 55.2° - - 1013.0
4/26 1:10am 234 3 G 5 56° 94% - - 54° 57.4° 55.4° - - 1013.0
4/26 1:00am 233 3 G 4 56° 94% - - 54° 57.4° 55.7° - - 1013.0
4/26 12:50am 241 2 G 4 56° 94% - - 54° 57.4° 55.8° - - 1013.0
4/26 12:40am 263 4 G 6 56° 93% - - 54° 57.4° 55.8° - - 1013.0
4/26 12:30am 232 3 G 5 57° 92% - - 54° 57.4° 56° - - 1013.0
4/26 12:20am 188 4 G 5 57° 92% - - 55° 57.3° 56.2° - - 1014.0
4/26 12:10am 176 4 G 5 57° 92% - - 54° 57.2° 56.2° - - 1013.0
4/26 12:00am 195 4 G 7 57° 92% - - 54° 67.3° 54.8° - - 1013.0
4/25 11:50pm 211 4 G 6 57° 90% - - 54° 67.3° 54.8° - - 1013.0
4/25 11:40pm 214 4 G 6 57° 87% - - 53° 67.3° 54.8° - - 1014.0
4/25 11:30pm 237 2 G 4 57° 86% - - 53° 67.3° 54.8° - - 1014.0
4/25 11:20pm 229 1 G 3 58° 82% - - 52° 67.3° 54.8° - - 1014.0
4/25 11:10pm 196 1 G 3 58° 79% - - 51° 67.3° 54.8° - - 1014.0
4/25 11:00pm 226 1 G 2 58° 79% - - 52° 67.3° 54.8° - - 1014.0
4/25 10:50pm 160 2 G 3 59° 76% - - 51° 67.3° 54.8° - - 1014.0
4/25 10:40pm 120 3 G 3 59° 77% - - 52° 67.3° 54.8° - - 1014.0
4/25 10:30pm 194 1 G 2 58° 84% - - 53° 67.3° 54.8° - - 1014.0
4/25 10:20pm 247 1 G 2 58° 83% - - 53° 67.3° 54.8° - - 1014.0
4/25 10:10pm 200 2 G 2 59° 79% - - 52° 67.3° 54.8° - - 1014.0
4/25 10:00pm 199 2 G 3 59° 73% - - 50° 67.3° 54.8° - - 1014.0
4/25 9:50pm 252 2 G 3 59° 71% - - 50° 67.3° 54.8° - - 1014.0
4/25 9:40pm 240 1 G 2 59° 72% - - 50° 67.3° 54.8° - - 1014.0
4/25 9:30pm 231 1 G 1 59° 71% - - 50° 67.3° 54.8° - - 1014.0
4/25 9:20pm 206 2 G 3 59° 69% - - 49° 67.3° 54.8° - - 1014.0
4/25 9:10pm 192 1 G 3 60° 64% - - 48° 67.3° 54.8° - - 1014.0
4/25 9:00pm 143 2 G 3 60° 65% - - 48° 67.3° 54.8° - - 1014.0
4/25 8:50pm 183 1 G 2 59° 71% - - 50° 67.3° 54.8° - - 1014.0
4/25 8:40pm 236 1 G 2 59° 71% - - 50° 67.3° 54.8° - - 1013.0
4/25 8:30pm 283 2 G 3 59° 71% - - 50° 67.3° 54.8° - - 1013.0
4/25 8:20pm 258 3 G 4 59° 70% - - 49° 67.3° 54.8° - - 1013.0
4/25 8:10pm 234 2 G 3 59° 69% - - 49° 67.3° 54.8° - - 1013.0
4/25 8:00pm 233 1 G 2 59° 69% - - 49° 67.3° 54.8° - - 1013.0
4/25 7:50pm 216 1 G 2 59° 69% - - 49° 67.3° 54.8° - - 1013.0
4/25 7:40pm 251 1 G 2 60° 69% - - 50° 67.3° 54.8° - - 1012.0
4/25 7:30pm 244 2 G 4 60° 67% - - 49° 67.3° 54.8° - - 1012.0
4/25 7:20pm 253 3 G 4 60° 64% - - 48° 67.3° 54.8° - - 1012.0
4/25 7:10pm 263 4 G 7 61° 63% - - 48° 67.3° 54.8° - - 1012.0
4/25 7:00pm 261 4 G 7 61° 61% - - 47° 67.3° 54.8° - - 1012.0
4/25 6:50pm 271 7 G 10 61° 58% - - 46° 67.3° 54.8° - - 1012.0
4/25 6:40pm 266 7 G 13 62° 57% - - 46° 67.3° 54.8° - - 1012.0
4/25 6:30pm 264 7 G 12 62° 58% - - 47° 67.3° 54.8° - - 1012.0
4/25 6:20pm 252 6 G 13 62° 58% - - 47° 67.3° 54.8° - - 1012.0
4/25 6:10pm 263 8 G 14 62° 59% - - 47° 67.3° 54.8° - - 1012.0
4/25 6:00pm 272 9 G 15 62° 58% - - 47° 67.3° 54.8° - - 1012.0
4/25 5:50pm 262 8 G 14 63° 56% - - 47° 67.3° 54.8° - - 1012.0
4/25 5:40pm 257 8 G 15 63° 55% - - 47° 67.3° 54.8° - - 1012.0
4/25 5:30pm 269 8 G 16 63° 56% - - 47° 67.3° 54.8° - - 1013.0
4/25 5:20pm 236 8 G 14 63° 56% - - 47° 67.3° 54.8° - - 1012.0
4/25 5:10pm 246 8 G 14 62° 57% - - 47° 67.3° 54.8° - - 1012.0
4/25 5:00pm 252 9 G 13 63° 57% - - 47° 67.3° 54.8° - - 1012.0
4/25 4:50pm 251 7 G 15 63° 55% - - 47° 67.3° 54.8° - - 1012.0
4/25 4:40pm 251 8 G 15 63° 57% - - 48° 67.3° 54.8° - - 1012.0
4/25 4:30pm 244 7 G 14 64° 62% - - 50° 67.3° 54.8° - - 1012.0
4/25 4:20pm 266 9 G 15 63° 64% - - 51° 67.3° 54.8° - - 1012.0
4/25 4:10pm 272 8 G 18 64° 63% - - 51° 67.3° 54.8° - - 1012.0
4/25 4:00pm 283 10 G 16 64° 62% - - 51° 67.3° 54.8° - - 1012.0
4/25 3:50pm 256 9 G 16 66° 60% - - 51° 67.3° 54.8° - - 1012.0
4/25 3:40pm 267 9 G 17 65° 61% - - 52° 67.1° 54.8° - - 1012.0
4/25 3:30pm 263 8 G 17 65° 61% - - 52° 67.1° 54.8° - - 1012.0
4/25 3:20pm 265 8 G 14 65° 62% - - 52° 67.1° 54.8° - - 1012.0
4/25 3:10pm 249 9 G 16 65° 62% - - 51° 67.1° 54.8° - - 1012.0
4/25 3:00pm 234 9 G 15 65° 61% - - 51° 67.1° 54.8° - - 1012.0
4/25 2:50pm 230 8 G 14 65° 60% - - 50° 67.1° 54.8° - - 1012.0
4/25 2:40pm 228 9 G 16 65° 58% - - 50° 67.1° 54.8° - - 1012.0
4/25 2:30pm 254 9 G 17 66° 59% - - 51° 67.1° 54.8° - - 1013.0
4/25 2:20pm 257 7 G 16 66° 58% - - 51° 67.1° 54.8° - - 1013.0
4/25 2:10pm 245 9 G 18 66° 59% - - 51° 66.6° 54.8° - - 1013.0
4/25 2:00pm 246 10 G 18 65° 60% - - 51° 66.5° 54.8° - - 1013.0
4/25 1:50pm 252 9 G 15 65° 61% - - 51° 66.5° 54.8° - - 1013.0
4/25 1:40pm 227 13 G 24 64° 68% - - 53° 66.5° 54.8° - - 1013.0
4/25 1:30pm 228 11 G 19 64° 66% - - 53° 66.5° 54.8° - - 1013.0
4/25 1:20pm 224 13 G 21 65° 64% - - 53° 66.5° 54.8° - - 1013.0
4/25 1:10pm 228 10 G 18 66° 61% - - 52° 66.5° 54.8° - - 1013.0
4/25 1:00pm 236 9 G 16 65° 60% - - 51° 66.5° 54.8° - - 1013.0
4/25 12:50pm 229 13 G 18 65° 61% - - 52° 66° 54.8° - - 1013.0
4/25 12:40pm 231 10 G 16 64° 65% - - 52° 65.9° 54.8° - - 1013.0
4/25 12:30pm 222 15 G 21 64° 65% - - 52° 65.8° 54.8° - - 1013.0
4/25 12:20pm 222 14 G 22 65° 64% - - 52° 65.8° 54.8° - - 1013.0
4/25 12:10pm 219 13 G 18 65° 64% - - 52° 65.7° 54.8° - - 1013.0
4/25 12:00pm 228 11 G 18 64° 65% - - 52° 65.7° 54.8° - - 1013.0
4/25 11:50am 217 13 G 21 64° 66% - - 52° 65.7° 54.8° - - 1013.0
4/25 11:40am 224 12 G 20 64° 65% - - 52° 65.7° 54.8° - - 1013.0
4/25 11:30am 222 12 G 18 65° 65% - - 53° 65.7° 54.8° - - 1013.0
4/25 11:20am 217 12 G 18 63° 68% - - 53° 64.8° 54.8° - - 1013.0
4/25 11:10am 219 12 G 21 64° 67% - - 53° 64.8° 54.8° - - 1013.0
4/25 11:00am 209 9 G 16 64° 68% - - 53° 64.7° 54.8° - - 1013.0
4/25 10:50am 215 9 G 15 62° 70% - - 53° 63.8° 54.8° - - 1014.0
4/25 10:40am 223 8 G 13 63° 71% - - 53° 63.8° 54.8° - - 1013.0
4/25 10:30am 219 9 G 13 62° 74% - - 53° 62.5° 54.8° - - 1014.0
4/25 10:20am 217 10 G 16 61° 75% - - 53° 62.3° 54.8° - - 1014.0
4/25 10:10am 214 11 G 16 61° 78% - - 54° 62° 54.8° - - 1014.0
4/25 10:00am 214 11 G 16 61° 77% - - 54° 62° 54.8° - - 1013.0
4/25 9:50am 222 11 G 16 60° 80% - - 54° 60.8° 54.8° - - 1013.0
4/25 9:40am 224 11 G 15 59° 82% - - 54° 59.8° 54.8° - - 1014.0
4/25 9:30am 219 12 G 16 59° 83% - - 54° 59.6° 54.8° - - 1014.0
4/25 9:20am 217 12 G 16 59° 83% - - 54° 59.6° 54.8° - - 1014.0
4/25 9:10am 217 10 G 15 59° 83% - - 54° 59.6° 54.8° - - 1014.0
4/25 9:00am 224 9 G 12 58° 84% - - 54° 59.4° 54.8° - - 1014.0
4/25 8:50am 221 10 G 14 58° 85% - - 54° 58.6° 54.8° - - 1013.0
4/25 8:40am 221 12 G 15 58° 85% - - 54° 58.6° 54.8° - - 1013.0
4/25 8:30am 222 10 G 15 58° 86% - - 54° 58.6° 54.8° - - 1013.0
4/25 8:20am 217 9 G 15 57° 88% - - 54° 58.2° 54.8° - - 1013.0
4/25 8:10am 218 11 G 14 57° 89% - - 54° 57.4° 54.8° - - 1013.0
4/25 8:00am 221 10 G 15 57° 89% - - 54° 57.4° 54.8° - - 1013.0
4/25 7:50am 216 11 G 16 56° 90% - - 54° 57.2° 54.8° - - 1013.0
4/25 7:40am 218 10 G 14 56° 91% - - 54° 57.2° 54.8° - - 1013.0
4/25 7:30am 215 11 G 15 56° 91% - - 53° 57.2° 54.8° - - 1012.0
4/25 7:20am 217 11 G 15 56° 92% - - 53° 57.2° 54.8° - - 1012.0
4/25 7:10am 215 11 G 16 56° 92% - - 53° 57.2° 54.8° - - 1012.0
4/25 7:00am 218 11 G 17 55° 93% - - 53° 57.2° 54.8° - - 1012.0
4/25 6:50am 211 12 G 18 55° 94% - - 54° 57.2° 54.8° - - 1012.0
4/25 6:40am 216 11 G 15 55° 94% - - 54° 57.2° 54.8° - - 1012.0
4/25 6:30am 216 11 G 14 55° 95% - - 54° 57.2° 54.8° - - 1012.0
4/25 6:20am 212 11 G 14 55° 95% - - 54° 57.2° 54.8° - - 1012.0
4/25 6:10am 213 11 G 15 55° 95% - - 54° 57.2° 54.8° - - 1012.0
4/25 6:00am 209 11 G 15 55° 95% - - 54° 57.2° 54.8° - - 1012.0
4/25 5:50am 203 12 G 15 55° 96% - - 54° 57.2° 54.8° - - 1012.0
4/25 5:40am 210 10 G 16 55° 96% - - 54° 57.2° 54.8° - - 1012.0
4/25 5:30am 211 10 G 14 55° 96% - - 54° 57.2° 54.8° - - 1012.0
4/25 5:20am 213 8 G 14 55° 96% - - 54° 57.2° 54.8° - - 1012.0
4/25 5:10am 204 11 G 15 55° 95% - - 54° 57.2° 54.8° - - 1012.0
4/25 5:00am 202 10 G 14 55° 95% - - 54° 57.2° 54.8° - - 1012.0
4/25 4:50am 203 11 G 16 55° 95% - - 54° 57.2° 55.1° - - 1011.0
4/25 4:40am 204 12 G 18 56° 94% - - 54° 57.2° 55.3° - - 1011.0
4/25 4:30am 204 12 G 17 56° 94% - - 54° 57.2° 55.3° - - 1011.0
4/25 4:20am 206 10 G 16 56° 94% - - 54° 57.2° 55.3° - - 1012.0
4/25 4:10am 204 8 G 13 56° 93% - - 54° 57.2° 55.5° - - 1012.0
4/25 4:00am 210 6 G 10 56° 93% - - 54° 57.2° 55.5° - - 1012.0
4/25 3:50am 217 5 G 8 56° 93% - - 54° 57.2° 55.5° - - 1012.0
4/25 3:40am 214 5 G 9 56° 92% - - 54° 57.2° 55.5° - - 1012.0
4/25 3:30am 211 5 G 11 56° 89% - - 53° 57.2° 55.7° - - 1012.0
4/25 3:20am 192 6 G 10 56° 88% - - 53° 57.2° 55.8° - - 1012.0
4/25 3:10am 206 8 G 12 56° 87% - - 52° 57.2° 55.8° - - 1012.0
4/25 3:00am 211 10 G 14 56° 86% - - 52° 57.2° 55.8° - - 1012.0
4/25 2:50am 217 9 G 13 56° 84% - - 52° 57.2° 55.8° - - 1012.0
4/25 2:40am 212 11 G 15 56° 84% - - 52° 57.2° 55.8° - - 1012.0
4/25 2:30am 216 7 G 11 56° 85% - - 52° 57.2° 55.8° - - 1012.0
4/25 2:20am 212 7 G 12 56° 85% - - 52° 57.2° 55.8° - - 1012.0
4/25 2:10am 216 8 G 11 56° 86% - - 52° 57.2° 55.8° - - 1012.0
4/25 2:00am 211 7 G 11 56° 86% - - 52° 57.2° 55.8° - - 1012.0
4/25 1:50am 204 8 G 11 56° 87% - - 52° 57.2° 55.8° - - 1012.0
4/25 1:40am 213 9 G 13 56° 87% - - 52° 57.2° 55.8° - - 1012.0
4/25 1:30am 216 9 G 13 56° 87% - - 53° 57.2° 56.1° - - 1012.0
4/25 1:20am 216 8 G 11 57° 87% - - 53° 57.2° 56.2° - - 1012.0
4/25 1:10am 213 9 G 12 57° 87% - - 53° 57.2° 56.2° - - 1012.0
4/25 1:00am 211 8 G 11 57° 88% - - 53° 57.2° 56.3° - - 1012.0
4/25 12:50am 214 8 G 11 57° 89% - - 53° 57.2° 56.3° - - 1012.0
4/25 12:40am 212 8 G 12 57° 89% - - 53° 57.2° 56.3° - - 1012.0
4/25 12:30am 215 8 G 12 57° 89% - - 53° 57.2° 56.3° - - 1012.0
4/25 12:20am 218 10 G 16 57° 87% - - 53° 57.2° 56.3° - - 1012.0
4/25 12:10am 214 11 G 15 57° 86% - - 52° 57.2° 56.3° - - 1012.0
4/25 12:00am 211 9 G 14 57° 86% - - 52° 72.9° 55.4° - - 1012.0
4/24 11:50pm 212 7 G 10 56° 86% - - 52° 72.9° 55.4° - - 1013.0
4/24 11:40pm 229 6 G 8 56° 86% - - 52° 72.9° 55.4° - - 1013.0
4/24 11:30pm 231 5 G 7 56° 87% - - 52° 72.9° 55.4° - - 1014.0
4/24 11:20pm 232 6 G 7 56° 87% - - 52° 72.9° 55.4° - - 1014.0
4/24 11:10pm 229 9 G 12 56° 87% - - 52° 72.9° 55.4° - - 1013.0
4/24 11:00pm 228 11 G 15 56° 88% - - 53° 72.9° 55.4° - - 1013.0
4/24 10:50pm 227 11 G 16 56° 88% - - 53° 72.9° 55.4° - - 1013.0
4/24 10:40pm 224 12 G 17 57° 90% - - 54° 72.9° 55.4° - - 1013.0
4/24 10:30pm 225 11 G 14 57° 90% - - 54° 72.9° 55.4° - - 1013.0
4/24 10:20pm 221 11 G 15 57° 89% - - 54° 72.9° 55.4° - - 1013.0
4/24 10:10pm 213 9 G 14 58° 85% - - 53° 72.9° 55.4° - - 1013.0
4/24 10:00pm 209 6 G 9 58° 84% - - 53° 72.9° 55.4° - - 1013.0
4/24 9:50pm 204 5 G 9 58° 85% - - 53° 72.9° 55.4° - - 1013.0
4/24 9:40pm 185 3 G 5 58° 85% - - 53° 72.9° 55.4° - - 1013.0
4/24 9:30pm 212 5 G 8 58° 84% - - 53° 72.9° 55.4° - - 1013.0
4/24 9:20pm 216 6 G 8 58° 83% - - 53° 72.9° 55.4° - - 1013.0
4/24 9:10pm 208 7 G 9 58° 83% - - 53° 72.9° 55.4° - - 1013.0
4/24 9:00pm 207 7 G 10 58° 83% - - 53° 72.9° 55.4° - - 1013.0
4/24 8:50pm 212 8 G 10 57° 84% - - 53° 72.9° 55.4° - - 1013.0
4/24 8:40pm 215 9 G 13 57° 85% - - 53° 72.9° 55.4° - - 1013.0
4/24 8:30pm 211 9 G 12 57° 86% - - 53° 72.9° 55.4° - - 1013.0
4/24 8:20pm 216 10 G 14 58° 87% - - 54° 72.9° 55.4° - - 1013.0
4/24 8:10pm 218 12 G 14 58° 87% - - 54° 72.9° 55.4° - - 1013.0
4/24 8:00pm 218 12 G 15 58° 86% - - 54° 72.9° 55.4° - - 1013.0
4/24 7:50pm 217 11 G 14 58° 85% - - 54° 72.9° 55.4° - - 1013.0
4/24 7:40pm 228 10 G 12 59° 85% - - 54° 72.9° 55.4° - - 1012.0
4/24 7:30pm 228 9 G 12 59° 85% - - 54° 72.9° 55.4° - - 1012.0
4/24 7:20pm 224 8 G 12 59° 83% - - 54° 72.9° 55.4° - - 1012.0
4/24 7:10pm 226 6 G 9 60° 82% - - 54° 72.9° 55.4° - - 1012.0
4/24 7:00pm 235 4 G 7 60° 81% - - 54° 72.9° 55.4° - - 1012.0
4/24 6:50pm 245 5 G 8 60° 80% - - 54° 72.9° 55.4° - - 1012.0
4/24 6:40pm 239 6 G 10 60° 80% - - 54° 72.9° 55.4° - - 1012.0
4/24 6:30pm 233 7 G 11 61° 79% - - 54° 72.9° 55.4° - - 1012.0
4/24 6:20pm 228 8 G 12 60° 80% - - 54° 72.9° 55.4° - - 1012.0
4/24 6:10pm 226 8 G 12 60° 80% - - 54° 72.9° 55.4° - - 1012.0
4/24 6:00pm 228 10 G 14 60° 80% - - 54° 72.9° 55.4° - - 1012.0